Time;durP1;ratioP1;P1;durP2;ratioP2;P2;SDS_P1;SDS_P2;PMS_P1;PMS_P2;Temp;Humidity;BMP_temperature;BMP_pressure;BME280_temperature;BME280_humidity;BME280_pressure;Samples;Min_cycle;Max_cycle;Signal;HPM_P1;HPM_P2
2023/04/01 00:04:58;;;;;;;6.93;2.20;;;;;;;17.71;59.63;95583.75;10385580;28;20509;-30
2023/04/01 00:09:58;;;;;;;5.00;2.23;;;;;;;17.72;58.35;95592.16;10367870;28;20033;-30
2023/04/01 00:14:59;;;;;;;9.30;2.37;;;;;;;17.71;58.89;95585.44;10363644;28;20030;-30
2023/04/01 00:20:00;;;;;;;5.45;1.60;;;;;;;17.70;58.28;95576.19;10384666;28;20064;-29
2023/04/01 00:25:02;;;;;;;7.18;2.15;;;;;;;17.68;58.79;95552.59;10378987;28;20064;-30
2023/04/01 00:30:03;;;;;;;7.78;2.08;;;;;;;17.68;58.76;95537.41;10388955;28;20409;-30
2023/04/01 00:35:04;;;;;;;4.55;1.80;;;;;;;17.69;58.65;95544.13;10393451;28;20118;-30
2023/04/01 00:40:06;;;;;;;5.53;1.92;;;;;;;17.67;58.29;95551.75;10365442;28;20065;-30
2023/04/01 00:45:47;;;;;;;7.15;1.85;;;;;;;17.67;57.97;95543.31;10355343;28;20413;-30
2023/04/01 00:50:51;;;;;;;5.22;1.92;;;;;;;17.68;57.85;95532.34;10179148;29;20044;-30
2023/04/01 00:56:01;;;;;;;4.93;2.22;;;;;;;17.69;59.04;95554.25;10343555;28;20076;-30
2023/04/01 01:01:01;;;;;;;5.18;1.77;;;;;;;17.72;58.52;95544.06;10372491;28;20173;-30
2023/04/01 01:06:21;;;;;;;4.43;2.08;;;;;;;17.74;58.15;95504.41;10369789;28;20076;-30
2023/04/01 01:11:36;;;;;;;5.05;2.08;;;;;;;17.72;58.79;95523.81;10347461;28;20429;-30
2023/04/01 01:16:44;;;;;;;7.03;2.35;;;;;;;17.73;58.07;95517.94;10347036;28;20042;-30
2023/04/01 01:22:06;;;;;;;5.70;1.98;;;;;;;17.72;58.44;95508.63;10351548;28;20422;-30
2023/04/01 01:27:14;;;;;;;4.75;1.25;;;;;;;17.72;58.44;95508.63;10356228;28;20884;-30
2023/04/01 01:32:25;;;;;;;4.65;1.70;;;;;;;17.72;58.57;95513.69;10322669;28;20039;-30
2023/04/01 01:37:28;;;;;;;6.85;1.90;;;;;;;17.72;57.57;95509.50;10376847;28;20034;-30
2023/04/01 01:42:33;;;;;;;5.03;1.30;;;;;;;17.73;58.30;95520.47;10360240;28;20040;-30
2023/04/01 01:47:35;;;;;;;4.28;2.53;;;;;;;17.69;58.30;95518.81;10373244;28;20421;-30
2023/04/01 01:52:36;;;;;;;4.35;1.50;;;;;;;17.71;57.61;95512.88;10352063;28;20064;-30
2023/04/01 02:03:53;;;;;;;6.00;1.63;;;;;;;17.72;58.61;95524.69;10358698;28;20074;-30
2023/04/01 02:08:59;;;;;;;4.15;1.40;;;;;;;17.75;58.89;95531.38;10362228;28;20038;-29
2023/04/01 02:14:10;;;;;;;4.30;1.95;;;;;;;17.71;58.61;95542.41;10369746;28;20128;-30
2023/04/01 02:19:13;;;;;;;3.47;1.50;;;;;;;17.72;57.67;95523.81;10362174;28;20029;-30
2023/04/01 02:24:15;;;;;;;3.08;1.27;;;;;;;17.74;57.12;95529.72;10353363;28;20030;-30
2023/04/01 02:29:18;;;;;;;4.38;1.33;;;;;;;17.76;56.92;95535.59;10358808;28;20030;-30
2023/04/01 02:34:19;;;;;;;4.82;2.33;;;;;;;17.75;56.99;95546.56;10370712;28;20056;-30
2023/04/01 02:39:20;;;;;;;2.38;1.63;;;;;;;17.76;57.35;95538.13;10369005;28;20454;-30
2023/04/01 02:44:21;;;;;;;2.60;1.20;;;;;;;17.74;57.79;95543.19;10374452;28;20029;-30
2023/04/01 02:49:22;;;;;;;2.53;1.25;;;;;;;17.75;57.98;95544.03;10352303;28;20455;-30
2023/04/01 02:54:22;;;;;;;4.40;1.52;;;;;;;17.75;57.39;95541.50;10358203;28;20490;-29
2023/04/01 02:59:22;;;;;;;2.87;1.30;;;;;;;17.74;57.29;95542.38;10363919;28;20033;-30
2023/04/01 03:04:23;;;;;;;1.80;1.03;;;;;;;17.71;57.53;95540.72;10340481;28;20391;-30
2023/04/01 03:09:23;;;;;;;3.33;1.10;;;;;;;17.73;58.21;95533.13;10353209;28;20297;-30
2023/04/01 03:14:24;;;;;;;2.42;1.38;;;;;;;17.77;58.04;95525.44;10343591;28;20037;-30
2023/04/01 03:19:24;;;;;;;3.15;1.17;;;;;;;17.75;57.62;95522.09;10378225;28;20034;-30
2023/04/01 03:24:25;;;;;;;5.40;1.52;;;;;;;17.74;57.65;95529.72;10358483;28;20142;-30
2023/04/01 03:29:25;;;;;;;2.17;1.00;;;;;;;17.74;57.21;95537.31;10351451;28;20041;-30
2023/04/01 03:34:26;;;;;;;2.30;1.10;;;;;;;17.75;57.21;95541.50;10351454;28;20280;-30
2023/04/01 03:39:26;;;;;;;2.30;1.17;;;;;;;17.75;57.75;95554.16;10364013;28;20558;-30
2023/04/01 03:44:30;;;;;;;2.83;1.20;;;;;;;17.72;57.50;95552.50;10350685;28;20502;-30
2023/04/01 03:49:32;;;;;;;1.90;0.90;;;;;;;17.76;56.86;95550.78;10348732;28;20039;-30
2023/04/01 03:54:33;;;;;;;2.55;1.30;;;;;;;17.73;56.90;95546.59;10381395;28;20021;-29
2023/04/01 03:59:34;;;;;;;3.58;1.45;;;;;;;17.75;57.51;95549.94;10347559;28;20041;-30
2023/04/01 04:04:34;;;;;;;2.85;1.10;;;;;;;17.74;56.33;95517.06;10354091;28;20045;-30
2023/04/01 04:09:35;;;;;;;6.18;1.23;;;;;;;17.80;57.68;95527.91;10350984;28;20457;-30
2023/04/01 04:14:35;;;;;;;4.82;1.48;;;;;;;17.77;58.20;95517.00;10335440;28;20503;-30
2023/04/01 04:19:37;;;;;;;2.70;1.25;;;;;;;17.79;58.00;95530.47;10343998;28;20046;-30
2023/04/01 04:24:38;;;;;;;3.00;1.00;;;;;;;17.80;57.55;95547.31;10356948;28;20101;-30
2023/04/01 04:29:43;;;;;;;4.28;1.25;;;;;;;17.79;56.65;95527.94;10351807;28;20037;-31
2023/04/01 04:34:44;;;;;;;1.38;0.80;;;;;;;17.79;57.05;95527.94;10353404;28;20137;-30
2023/04/01 04:39:44;;;;;;;2.70;1.27;;;;;;;17.77;56.54;95522.91;10374679;28;20362;-30
2023/04/01 04:44:44;;;;;;;1.60;0.87;;;;;;;17.79;56.64;95510.22;10358294;28;20034;-29
2023/04/01 04:49:45;;;;;;;1.48;1.05;;;;;;;17.80;57.06;95524.53;10384777;28;20087;-30
2023/04/01 04:54:46;;;;;;;1.52;0.82;;;;;;;17.80;56.80;95527.91;10363683;28;20485;-30
2023/04/01 04:59:46;;;;;;;1.38;0.93;;;;;;;17.78;56.78;95508.53;10359801;28;20026;-30
2023/04/01 05:04:51;;;;;;;2.75;1.25;;;;;;;17.76;56.90;95490.03;10349477;28;20038;-30
2023/04/01 05:09:52;;;;;;;2.90;1.20;;;;;;;17.75;56.99;95506.06;10353411;28;20045;-30
2023/04/01 05:14:52;;;;;;;3.75;1.27;;;;;;;17.76;57.63;95495.91;10358584;28;20350;-30
2023/04/01 05:19:53;;;;;;;3.47;1.20;;;;;;;17.77;57.76;95506.88;10382059;28;20033;-30
2023/04/01 05:24:53;;;;;;;2.25;0.85;;;;;;;17.79;57.14;95510.22;10360031;28;20289;-30
2023/04/01 05:29:54;;;;;;;3.38;0.90;;;;;;;17.81;56.34;95505.94;10364838;28;20410;-29
2023/04/01 05:35:16;;;;;;;2.70;1.33;;;;;;;17.84;56.20;95510.97;10346603;28;20030;-30
2023/04/01 05:40:17;;;;;;;2.83;1.42;;;;;;;17.80;56.12;95489.94;10359513;28;20034;-30
2023/04/01 05:45:17;;;;;;;1.20;0.80;;;;;;;17.85;56.48;95500.00;10356899;28;20026;-30
2023/04/01 05:50:43;;;;;;;2.35;0.98;;;;;;;17.85;56.22;95484.81;10358334;28;20568;-30
2023/04/01 05:55:45;;;;;;;2.30;0.90;;;;;;;17.86;56.00;95494.06;10352826;28;20041;-30
2023/04/01 06:00:45;;;;;;;2.30;0.97;;;;;;;17.88;56.13;95502.47;10349590;28;20034;-30
2023/04/01 06:05:46;;;;;;;3.72;1.35;;;;;;;17.89;56.91;95506.66;10346722;28;20296;-30
2023/04/01 06:10:55;;;;;;;1.35;0.90;;;;;;;17.89;56.20;95499.91;10358235;28;20509;-29
2023/04/01 06:16:15;;;;;;;1.55;0.80;;;;;;;17.90;56.48;95510.88;10354203;28;21509;-30
2023/04/01 06:21:22;;;;;;;2.60;0.80;;;;;;;17.86;57.40;95494.06;10357731;28;20060;-30
2023/04/01 06:27:12;;;;;;;2.35;1.33;;;;;;;17.87;57.79;95510.91;10343176;28;20038;-29
2023/04/01 06:32:34;;;;;;;1.20;0.77;;;;;;;17.87;56.49;95496.59;10344432;28;20516;-30
2023/04/01 06:37:49;;;;;;;2.67;0.90;;;;;;;17.88;56.85;95489.81;10353248;28;20505;-30
2023/04/01 06:43:23;;;;;;;8.98;1.00;;;;;;;17.85;56.77;95497.47;10359856;28;20038;-30
2023/04/01 06:49:06;;;;;;;4.13;0.80;;;;;;;17.93;56.08;95477.91;10362859;28;20045;-30
2023/04/01 06:54:32;;;;;;;8.50;1.38;;;;;;;17.95;57.04;95491.38;10345201;28;20423;-30
2023/04/01 06:59:53;;;;;;;5.03;1.20;;;;;;;17.95;57.20;95482.09;10358653;28;20046;-29
2023/04/01 07:04:57;;;;;;;5.47;1.02;;;;;;;17.97;57.63;95472.78;10335402;28;20127;-30
2023/04/01 07:10:02;;;;;;;4.60;1.05;;;;;;;17.94;57.31;95479.56;10346473;28;20120;-30
2023/04/01 07:15:13;;;;;;;6.93;1.20;;;;;;;17.95;58.83;95491.38;10372129;28;20065;-29
2023/04/01 07:20:23;;;;;;;11.35;1.73;;;;;;;17.98;57.67;95455.88;10336312;28;20026;-29
2023/04/01 07:25:39;;;;;;;2.67;0.82;;;;;;;17.99;56.09;95482.88;10357723;28;20026;-30
2023/04/01 07:31:39;;;;;;;4.60;1.10;;;;;;;17.96;55.59;95485.44;10358674;28;20042;-30
2023/04/01 07:36:53;;;;;;;1.85;0.75;;;;;;;17.96;53.13;95485.44;10366371;28;20025;-30
2023/04/01 07:42:07;;;;;;;3.47;0.73;;;;;;;17.88;54.86;95489.81;10341274;28;20103;-30
2023/04/01 07:47:34;;;;;;;2.33;0.70;;;;;;;17.86;54.16;95486.47;10339551;28;20469;-30
2023/04/01 07:52:49;;;;;;;3.25;1.00;;;;;;;17.81;54.21;95503.41;10353349;28;20117;-30
2023/04/01 07:58:26;;;;;;;3.33;0.70;;;;;;;17.82;51.55;95497.53;10357219;28;20574;-30
2023/04/01 08:03:35;;;;;;;1.75;0.47;;;;;;;17.84;50.67;95506.75;10360174;28;20041;-30
2023/04/01 08:09:01;;;;;;;2.97;1.33;;;;;;;17.91;57.56;95504.97;10361391;28;20045;-30
2023/04/01 08:14:44;;;;;;;3.85;0.90;;;;;;;17.89;52.23;95514.25;10368079;28;20073;-30
2023/04/01 08:20:25;;;;;;;1.17;0.40;;;;;;;17.83;51.74;95511.84;10368498;28;20470;-29
2023/04/01 08:25:30;;;;;;;0.73;0.50;;;;;;;17.79;51.10;95531.31;10360704;28;20050;-30
2023/04/01 08:30:43;;;;;;;2.55;0.70;;;;;;;17.78;50.98;95521.19;10342938;28;20037;-30
2023/04/01 08:36:09;;;;;;;1.35;0.60;;;;;;;17.76;50.64;95545.72;10382282;28;20030;-30
2023/04/01 08:41:32;;;;;;;0.98;0.60;;;;;;;17.76;50.32;95531.34;10350032;28;20092;-31
2023/04/01 08:47:06;;;;;;;2.38;0.43;;;;;;;17.79;49.55;95530.47;10356817;28;20410;-30
2023/04/01 08:52:25;;;;;;;3.28;0.93;;;;;;;17.80;51.84;95548.16;10371603;28;20073;-30
2023/04/01 08:57:40;;;;;;;2.55;0.77;;;;;;;17.82;58.06;95535.50;10361287;28;20529;-30
2023/04/01 09:03:24;;;;;;;3.42;1.00;;;;;;;17.82;58.60;95516.06;10383281;28;20037;-29
2023/04/01 09:08:37;;;;;;;3.65;0.55;;;;;;;17.86;52.39;95542.16;10355769;28;20057;-29
2023/04/01 09:13:50;;;;;;;2.67;0.45;;;;;;;17.85;54.34;95546.41;10358351;28;20033;-30
2023/04/01 09:19:11;;;;;;;0.80;0.50;;;;;;;17.76;51.90;95540.66;10337803;28;20494;-29
2023/04/01 09:24:36;;;;;;;3.75;0.88;;;;;;;17.85;52.71;95540.50;10350294;28;20089;-30
2023/04/01 09:30:19;;;;;;;5.82;0.63;;;;;;;17.76;53.54;95550.78;10351863;28;20497;-29
2023/04/01 09:35:56;;;;;;;7.45;0.85;;;;;;;17.49;54.10;95551.19;10358738;28;20026;-30
2023/04/01 09:41:03;;;;;;;4.50;0.80;;;;;;;17.45;53.35;95559.69;10348392;28;20041;-30
2023/04/01 09:46:51;;;;;;;5.65;0.98;;;;;;;17.47;52.77;95561.34;10373676;28;20037;-30
2023/04/01 09:52:17;;;;;;;5.18;1.02;;;;;;;17.69;53.57;95567.75;10355218;28;20033;-30
2023/04/01 09:57:54;;;;;;;2.28;0.93;;;;;;;17.82;55.35;95569.22;10352667;28;20042;-30
2023/04/01 10:03:52;;;;;;;5.80;1.70;;;;;;;17.84;53.32;95579.34;10354030;28;20052;-29
2023/04/01 10:09:15;;;;;;;3.78;0.82;;;;;;;17.83;53.40;95568.38;10344991;28;20034;-30
2023/04/01 10:14:46;;;;;;;5.80;1.15;;;;;;;17.85;53.55;95570.88;10358680;28;20026;-30
2023/04/01 10:20:05;;;;;;;4.05;0.80;;;;;;;17.84;53.49;95579.34;10351517;28;20560;-29
2023/04/01 10:25:37;;;;;;;1.92;0.82;;;;;;;17.86;53.52;95587.75;10340668;28;20073;-30
2023/04/01 10:30:44;;;;;;;5.40;1.83;;;;;;;17.88;54.61;95580.94;10323828;28;20129;-30
2023/04/01 10:36:13;;;;;;;2.92;0.88;;;;;;;17.88;54.35;95576.72;10352517;28;20371;-30
2023/04/01 10:41:17;;;;;;;3.15;1.20;;;;;;;17.89;53.58;95572.50;10351822;28;20025;-29
2023/04/01 10:47:23;;;;;;;3.00;1.10;;;;;;;17.97;56.24;95585.88;10311491;28;20415;-30
2023/04/01 10:52:41;;;;;;;8.68;1.20;;;;;;;17.83;54.89;95593.69;10353910;28;20029;-29
2023/04/01 10:58:40;;;;;;;2.85;1.10;;;;;;;17.87;54.38;95589.41;10363436;28;20049;-30
2023/04/01 11:04:37;;;;;;;2.83;0.75;;;;;;;17.84;54.39;95589.47;10341875;28;20038;-30
2023/04/01 11:10:29;;;;;;;3.47;1.27;;;;;;;17.85;54.88;95586.06;10357292;28;20438;-30
2023/04/01 11:15:59;;;;;;;4.65;0.95;;;;;;;17.84;55.52;95594.53;10358979;28;20490;-30
2023/04/01 11:21:02;;;;;;;3.80;1.00;;;;;;;17.86;55.67;95608.00;10343870;28;20042;-33
2023/04/01 11:26:12;;;;;;;2.13;0.90;;;;;;;17.86;54.93;95608.00;10358579;28;20034;-33
2023/04/01 11:31:46;;;;;;;3.80;0.88;;;;;;;17.45;54.11;95607.75;10368593;28;20420;-33
2023/04/01 11:37:06;;;;;;;5.13;0.88;;;;;;;17.73;55.22;95636.91;10348714;28;20504;-33
2023/04/01 11:42:40;;;;;;;8.32;1.42;;;;;;;17.85;58.19;95634.16;10372079;28;20033;-34
2023/04/01 11:48:17;;;;;;;10.40;1.10;;;;;;;17.86;60.06;95643.44;10371435;28;20031;-38
2023/04/01 11:53:39;;;;;;;5.55;1.05;;;;;;;17.84;57.73;95640.09;10352996;28;20124;-33
2023/04/01 11:59:11;;;;;;;6.78;1.13;;;;;;;17.80;56.44;95643.53;10362731;28;20065;-34
2023/04/01 12:04:23;;;;;;;5.57;1.17;;;;;;;17.81;57.46;95637.59;10352025;28;20040;-34
2023/04/01 12:09:30;;;;;;;3.10;1.05;;;;;;;17.82;56.86;95626.63;10335710;28;20033;-33
2023/04/01 12:14:59;;;;;;;;;;;;;;;17.83;55.50;95628.31;10360809;28;20038;-34
2023/04/01 12:20:12;;;;;;;1.77;0.80;;;;;;;17.85;54.75;95636.72;10303170;28;19920;-33
2023/04/01 12:25:24;;;;;;;3.75;0.90;;;;;;;17.84;56.14;95635.84;10376090;28;20498;-34
2023/04/01 12:30:36;;;;;;;6.72;0.98;;;;;;;17.83;55.44;95636.72;10356319;28;20041;-33
2023/04/01 12:35:43;;;;;;;6.78;1.02;;;;;;;17.85;60.21;95634.16;10359108;28;20030;-33
2023/04/01 12:40:56;;;;;;;4.22;0.82;;;;;;;17.86;60.84;95630.78;10369483;28;20049;-33
2023/04/01 12:46:13;;;;;;;3.13;0.90;;;;;;;17.85;56.51;95637.56;10364645;28;20042;-34
2023/04/01 12:51:35;;;;;;;3.55;1.00;;;;;;;17.86;56.78;95628.25;10373008;28;20033;-34
2023/04/01 12:56:54;;;;;;;6.35;0.95;;;;;;;17.86;55.52;95638.38;10365625;28;20049;-42
2023/04/01 13:02:27;;;;;;;5.22;1.00;;;;;;;17.85;55.73;95624.03;10362767;28;20068;-33
2023/04/01 13:07:52;;;;;;;4.90;0.60;;;;;;;17.84;55.49;95635.03;10336685;28;20549;-33
2023/04/01 13:13:21;;;;;;;1.33;0.45;;;;;;;17.85;54.34;95632.50;10383117;28;20124;-33
2023/04/01 13:18:24;;;;;;;0.77;0.45;;;;;;;17.87;54.27;95634.97;10364655;28;20034;-34
2023/04/01 13:23:40;;;;;;;1.92;1.20;;;;;;;17.87;53.96;95640.03;10360848;28;20040;-33
2023/04/01 13:28:49;;;;;;;5.60;1.00;;;;;;;17.92;58.88;95653.47;10362738;28;20401;-34
2023/04/01 13:33:49;;;;;;;3.33;0.93;;;;;;;17.96;60.45;95655.09;10353456;28;20124;-34
2023/04/01 13:39:12;;;;;;;2.10;0.77;;;;;;;17.93;55.18;95629.84;10375738;28;20124;-33
2023/04/01 13:44:32;;;;;;;2.00;0.45;;;;;;;17.95;54.15;95634.03;10348570;28;20042;-34
2023/04/01 13:49:51;;;;;;;5.00;0.90;;;;;;;17.93;54.19;95624.78;10372187;28;20126;-33
2023/04/01 13:55:00;;;;;;;2.78;0.70;;;;;;;17.94;53.79;95608.72;10371403;28;20113;-33
2023/04/01 14:00:19;;;;;;;2.42;1.02;;;;;;;17.94;54.40;95618.84;10371464;28;20042;-34
2023/04/01 14:05:19;;;;;;;1.05;0.63;;;;;;;17.93;53.92;95619.69;10372420;28;20423;-33
2023/04/01 14:10:40;;;;;;;6.75;0.60;;;;;;;17.88;53.66;95608.78;10369041;28;20039;-34
2023/04/01 14:15:55;;;;;;;3.65;0.95;;;;;;;17.92;53.59;95597.78;10370460;28;20042;-33
2023/04/01 14:21:32;;;;;;;5.25;1.95;;;;;;;17.93;53.87;95579.19;10381031;28;20046;-33
2023/04/01 14:27:09;;;;;;;7.67;1.33;;;;;;;17.93;60.85;95582.53;10371375;28;20073;-33
2023/04/01 14:32:31;;;;;;;5.77;0.90;;;;;;;17.93;60.46;95585.06;10378908;28;20409;-33
2023/04/01 14:37:46;;;;;;;5.65;0.82;;;;;;;17.93;55.86;95599.44;10369054;28;20037;-33
2023/04/01 14:42:52;;;;;;;2.17;0.70;;;;;;;17.92;54.96;95625.63;10383863;28;20040;-33
2023/04/01 14:48:15;;;;;;;5.27;1.47;;;;;;;17.92;54.73;95661.09;10369968;28;20042;-33
2023/04/01 14:53:24;;;;;;;4.20;1.10;;;;;;;17.90;54.25;95619.75;10356558;28;20146;-34
2023/04/01 14:58:50;;;;;;;1.80;0.70;;;;;;;17.92;56.04;95633.22;10363418;28;20522;-34
2023/04/01 15:04:05;;;;;;;2.35;0.70;;;;;;;17.88;54.25;95631.59;10375024;28;20563;-33
2023/04/01 15:09:36;;;;;;;2.83;0.95;;;;;;;17.81;53.87;95630.00;10376519;28;20038;-33
2023/04/01 15:14:39;;;;;;;4.60;0.63;;;;;;;17.85;53.70;95627.44;10360669;28;20564;-34
2023/04/01 15:20:20;;;;;;;5.97;1.08;;;;;;;17.92;60.16;95638.28;10375945;28;20037;-34
2023/04/01 15:25:47;;;;;;;5.57;1.17;;;;;;;17.94;60.84;95639.09;10357625;28;20058;-34
2023/04/01 15:31:08;;;;;;;2.47;0.80;;;;;;;17.91;55.37;95631.56;10364039;28;20045;-34
2023/04/01 15:36:22;;;;;;;3.55;0.80;;;;;;;17.87;55.50;95630.75;10353167;28;20532;-34
2023/04/01 15:41:38;;;;;;;0.80;0.50;;;;;;;17.87;53.75;95629.91;10369365;28;20041;-34
2023/04/01 15:46:49;;;;;;;3.15;0.82;;;;;;;17.86;53.47;95638.38;10374742;28;20099;-34
2023/04/01 15:51:59;;;;;;;5.97;0.68;;;;;;;17.85;53.49;95629.97;10374968;28;20033;-34
2023/04/01 15:57:15;;;;;;;3.00;0.50;;;;;;;17.86;53.43;95643.44;10372089;28;20414;-34
2023/04/01 16:02:32;;;;;;;1.02;0.43;;;;;;;17.87;53.22;95645.09;10374211;28;20038;-34
2023/04/01 16:07:43;;;;;;;;;;;;;;;17.85;53.36;95642.63;10358266;28;20033;-34
2023/04/01 16:13:00;;;;;;;4.97;0.68;;;;;;;17.86;60.62;95649.34;10364653;28;19913;-33
2023/04/01 16:18:15;;;;;;;;;;;;;;;17.88;60.34;95661.97;10382697;28;20667;-34
2023/04/01 16:23:29;;;;;;;2.40;0.55;;;;;;;17.85;54.88;95657.81;10368368;28;19914;-34
2023/04/01 16:28:49;;;;;;;2.00;0.40;;;;;;;17.86;53.80;95653.56;10384198;28;20061;-34
2023/04/01 16:33:57;;;;;;;2.08;0.55;;;;;;;17.87;54.21;95656.09;10387912;28;20033;-34
2023/04/01 16:39:26;;;;;;;1.55;0.40;;;;;;;17.87;53.77;95652.69;10379818;28;20025;-33
2023/04/01 16:44:27;;;;;;;1.42;0.63;;;;;;;17.88;53.75;95667.03;10375783;28;20147;-34
2023/04/01 16:49:44;;;;;;;1.92;0.60;;;;;;;17.77;54.63;95667.22;10378121;28;20037;-34
2023/04/01 16:54:50;;;;;;;6.55;0.93;;;;;;;17.74;55.47;95656.28;10371124;28;20037;-33
2023/04/01 16:59:55;;;;;;;2.00;0.47;;;;;;;17.84;54.94;95673.81;10355771;28;20103;-34
2023/04/01 17:05:01;;;;;;;4.95;1.17;;;;;;;17.79;57.21;95672.22;10359663;28;20037;-34
2023/04/01 17:10:14;;;;;;;;;;;;;;;17.93;59.88;95677.94;10348740;28;20057;-34
2023/04/01 17:15:26;;;;;;;5.00;0.73;;;;;;;17.92;58.95;95669.50;10353771;28;19914;-33
2023/04/01 17:20:54;;;;;;;7.35;0.88;;;;;;;17.80;57.83;95669.69;10361951;28;20064;-32
2023/04/01 17:26:21;;;;;;;5.30;0.43;;;;;;;17.75;54.52;95670.59;10347177;28;20084;-34
2023/04/01 17:31:36;;;;;;;7.15;0.82;;;;;;;17.79;53.81;95669.69;10354856;28;20069;-33
2023/04/01 17:36:38;;;;;;;8.05;0.98;;;;;;;17.81;56.42;95678.09;10374887;28;20543;-34
2023/04/01 17:42:09;;;;;;;3.72;0.82;;;;;;;17.81;55.57;95681.47;10360263;28;20045;-33
2023/04/01 17:47:15;;;;;;;3.13;0.95;;;;;;;17.80;55.10;95678.97;10382647;28;20042;-34
2023/04/01 17:52:33;;;;;;;4.22;1.35;;;;;;;17.79;53.88;95692.47;10362887;28;20034;-34
2023/04/01 17:57:54;;;;;;;2.50;0.50;;;;;;;17.78;53.82;95688.28;10371129;28;20041;-34
2023/04/01 18:03:25;;;;;;;3.25;1.48;;;;;;;17.78;60.01;95693.34;10366911;28;20030;-34
2023/04/01 18:08:44;;;;;;;4.30;1.60;;;;;;;17.83;60.46;95704.25;10370744;28;20422;-34
2023/04/01 18:13:51;;;;;;;7.07;0.85;;;;;;;17.81;57.59;95703.41;10347139;28;20469;-34
2023/04/01 18:19:29;;;;;;;6.78;1.33;;;;;;;17.84;54.01;95706.75;10387260;28;20029;-34
2023/04/01 18:25:01;;;;;;;3.88;1.08;;;;;;;17.88;56.90;95715.13;10370233;28;20048;-34
2023/04/01 18:30:29;;;;;;;2.45;0.70;;;;;;;17.85;55.91;95722.78;10336199;28;20042;-34
2023/04/01 18:36:06;;;;;;;6.10;1.23;;;;;;;17.89;55.58;95732.00;10362351;28;20036;-34
2023/04/01 18:41:12;;;;;;;4.07;1.57;;;;;;;17.89;55.31;95739.59;10374022;28;20025;-33
2023/04/01 18:46:22;;;;;;;;;;;;;;;17.88;54.14;95748.06;10363769;28;20418;-34
2023/04/01 18:51:35;;;;;;;2.92;0.77;;;;;;;17.87;53.91;95753.97;10360653;28;19914;-33
2023/04/01 18:56:39;;;;;;;5.75;1.42;;;;;;;17.84;53.76;95759.91;10362911;28;20041;-33
2023/04/01 19:02:07;;;;;;;5.68;1.45;;;;;;;17.84;60.06;95764.16;10365674;28;20167;-33
2023/04/01 19:07:39;;;;;;;3.33;1.40;;;;;;;17.84;59.40;95771.75;10364990;28;20042;-33
2023/04/01 19:13:18;;;;;;;3.95;0.80;;;;;;;17.83;55.96;95775.97;10371416;28;20120;-34
2023/04/01 19:18:41;;;;;;;2.25;1.25;;;;;;;17.79;54.93;95778.56;10352125;28;20038;-33
2023/04/01 19:24:12;;;;;;;4.95;0.93;;;;;;;17.77;54.33;95775.22;10361391;28;20045;-33
2023/04/01 19:29:33;;;;;;;1.52;0.93;;;;;;;17.75;54.42;95766.81;10353874;28;20033;-33
2023/04/01 19:34:50;;;;;;;2.67;1.23;;;;;;;17.76;54.17;95776.06;10367453;28;20037;-34
2023/04/01 19:40:21;;;;;;;2.38;0.50;;;;;;;17.73;54.17;95784.53;10363492;28;20065;-33
2023/04/01 19:45:34;;;;;;;1.77;0.90;;;;;;;17.71;53.97;95778.66;10362683;28;20033;-33
2023/04/01 19:50:57;;;;;;;2.67;0.85;;;;;;;17.73;53.44;95793.84;10369956;28;20379;-33
2023/04/01 19:56:15;;;;;;;2.17;0.75;;;;;;;17.82;58.23;95793.72;10370313;28;20038;-33
2023/04/01 20:01:39;;;;;;;1.48;0.77;;;;;;;17.87;58.89;95807.16;10387108;28;20039;-33
2023/04/01 20:07:06;;;;;;;3.72;0.80;;;;;;;17.83;58.69;95815.66;10365906;28;20038;-34
2023/04/01 20:12:39;;;;;;;3.78;1.10;;;;;;;17.81;57.97;95813.13;10369403;28;20075;-33
2023/04/01 20:17:48;;;;;;;5.60;0.80;;;;;;;17.80;55.31;95808.06;10382253;28;20796;-33
2023/04/01 20:23:03;;;;;;;1.98;0.80;;;;;;;17.71;58.38;95798.06;10349226;28;20067;-33
2023/04/01 20:28:06;;;;;;;1.33;0.82;;;;;;;17.75;55.26;95807.31;10361277;28;20113;-33
2023/04/01 20:33:45;;;;;;;3.22;0.90;;;;;;;17.81;54.06;95814.81;10370010;28;20393;-33
2023/04/01 20:39:11;;;;;;;2.17;0.60;;;;;;;17.81;54.12;95817.34;10366625;28;20401;-33
2023/04/01 20:44:27;;;;;;;2.08;0.60;;;;;;;17.81;54.22;95819.88;10377245;28;20042;-33
2023/04/01 20:49:41;;;;;;;2.33;0.73;;;;;;;17.79;54.00;95830.03;10364078;28;20418;-34
2023/04/01 20:54:53;;;;;;;1.45;0.63;;;;;;;17.83;58.99;95836.72;10363730;28;20037;-33
2023/04/01 21:00:31;;;;;;;5.15;0.82;;;;;;;17.86;59.38;95841.78;10367976;28;20418;-33
2023/04/01 21:05:50;;;;;;;4.55;1.75;;;;;;;17.76;59.08;95834.28;10379035;28;20492;-34
2023/04/01 21:11:01;;;;;;;3.85;1.27;;;;;;;17.73;60.00;95835.16;10383931;28;20117;-33
2023/04/01 21:16:23;;;;;;;3.15;0.88;;;;;;;17.74;57.75;95843.59;10375714;28;20242;-33
2023/04/01 21:21:26;;;;;;;1.23;0.63;;;;;;;17.76;56.01;95849.47;10371509;28;20493;-33
2023/04/01 21:26:57;;;;;;;4.50;0.88;;;;;;;17.72;59.15;95840.22;10382602;28;20046;-33
2023/04/01 21:32:14;;;;;;;2.35;0.50;;;;;;;17.70;59.37;95847.84;10371837;28;20029;-33
2023/04/01 21:37:37;;;;;;;;;;;;;;;17.70;57.54;95854.59;10351800;28;20124;-33
2023/04/01 21:42:55;;;;;;;2.45;0.70;;;;;;;17.67;58.19;95857.19;10348566;28;19921;-32
2023/04/01 21:48:04;;;;;;;4.05;0.77;;;;;;;17.67;59.03;95857.19;10372183;28;20449;-33
2023/04/01 21:53:07;;;;;;;2.58;0.80;;;;;;;17.72;61.17;95861.34;10358519;28;20092;-33
2023/04/01 21:58:52;;;;;;;5.00;1.00;;;;;;;17.72;61.04;95858.81;10315962;28;1051369;-33
2023/04/01 22:04:17;;;;;;;3.33;1.15;;;;;;;17.70;60.35;95855.47;10293900;28;20133;-33
2023/04/01 22:09:24;;;;;;;2.33;0.70;;;;;;;17.68;60.15;95867.25;10342501;28;20195;-34
2023/04/01 22:14:47;;;;;;;2.08;0.70;;;;;;;17.70;55.91;95869.78;10355351;28;20521;-34
2023/04/01 22:20:05;;;;;;;2.72;0.60;;;;;;;17.67;56.98;95864.78;10354560;28;20414;-33
2023/04/01 22:25:21;;;;;;;3.50;0.47;;;;;;;17.69;57.49;95870.66;10344046;28;20085;-33
2023/04/01 22:30:33;;;;;;;3.55;0.85;;;;;;;17.65;54.94;95867.31;10344613;28;20038;-33
2023/04/01 22:35:48;;;;;;;1.10;0.40;;;;;;;17.68;54.79;95877.38;10348791;28;20032;-34
2023/04/01 22:41:02;;;;;;;1.85;0.65;;;;;;;17.69;54.52;95884.16;10352229;28;20044;-32
2023/04/01 22:46:26;;;;;;;1.33;0.60;;;;;;;17.66;55.02;95898.53;10352023;28;20124;-33
2023/04/01 22:51:46;;;;;;;1.52;0.73;;;;;;;17.68;60.87;95891.75;10351226;28;20022;-33
2023/04/01 22:57:04;;;;;;;2.47;0.80;;;;;;;17.68;60.91;95886.69;10352532;28;20115;-33
2023/04/01 23:02:17;;;;;;;1.95;0.60;;;;;;;17.66;60.50;95893.47;10356835;28;20483;-33
2023/04/01 23:07:36;;;;;;;1.42;0.60;;;;;;;17.69;54.55;95893.44;10348658;28;20022;-33
2023/04/01 23:12:38;;;;;;;0.73;0.43;;;;;;;17.68;54.64;95897.63;10366802;28;20608;-33
2023/04/01 23:17:57;;;;;;;1.23;0.85;;;;;;;17.70;53.81;95905.22;10347309;28;20030;-33
2023/04/01 23:23:23;;;;;;;1.05;0.70;;;;;;;17.68;54.01;95917.06;10370478;28;20425;-33
2023/04/01 23:28:32;;;;;;;5.22;0.60;;;;;;;17.68;54.97;95917.88;10366274;28;20098;-33
2023/04/01 23:33:33;;;;;;;2.08;0.88;;;;;;;17.68;54.16;95917.06;10359570;28;20038;-33
2023/04/01 23:38:41;;;;;;;1.80;0.70;;;;;;;17.66;54.58;95928.91;10363171;28;20547;-33
2023/04/01 23:43:43;;;;;;;1.85;0.50;;;;;;;17.65;53.92;95914.56;10346795;28;20308;-33
2023/04/01 23:48:46;;;;;;;3.67;0.98;;;;;;;17.67;60.54;95925.53;10357136;28;20509;-34
2023/04/01 23:53:55;;;;;;;3.25;0.85;;;;;;;17.69;60.80;95932.25;10360466;28;20025;-33
2023/04/01 23:58:56;;;;;;;1.42;0.85;;;;;;;17.66;60.35;95926.38;10347554;28;20033;-33
